Time;durP1;ratioP1;P1;durP2;ratioP2;P2;SDS_P1;SDS_P2;PMS_P1;PMS_P2;Temp;Humidity;BMP_temperature;BMP_pressure;BME280_temperature;BME280_humidity;BME280_pressure;Samples;Min_cycle;Max_cycle;Signal;HPM_P1;HPM_P2
2023/08/14 00:00:57;;;;;;;8.02;2.58;;;18.50;99.90;;;;;;5034549;28;20218;-45
2023/08/14 00:03:23;;;;;;;7.00;2.50;;;18.50;99.90;;;;;;5034311;28;20179;-45
2023/08/14 00:05:49;;;;;;;10.45;2.67;;;18.50;99.90;;;;;;5034212;28;20178;-45
2023/08/14 00:08:14;;;;;;;7.90;2.60;;;18.50;99.90;;;;;;5034767;28;20531;-45
2023/08/14 00:10:40;;;;;;;10.65;2.38;;;18.50;99.90;;;;;;5034289;28;20175;-45
2023/08/14 00:13:06;;;;;;;8.23;2.85;;;18.40;99.90;;;;;;5034176;28;20273;-45
2023/08/14 00:15:31;;;;;;;8.80;2.55;;;18.40;99.90;;;;;;5034333;28;20167;-46
2023/08/14 00:17:57;;;;;;;9.35;2.40;;;18.30;99.90;;;;;;5034234;28;20537;-44
2023/08/14 00:20:22;;;;;;;7.38;2.80;;;18.40;99.90;;;;;;5034188;28;20256;-45
2023/08/14 00:22:48;;;;;;;6.88;2.70;;;18.30;99.90;;;;;;5034064;28;20168;-45
2023/08/14 00:25:13;;;;;;;10.00;2.90;;;18.30;99.90;;;;;;5034488;28;20605;-45
2023/08/14 00:27:39;;;;;;;8.75;3.00;;;18.30;99.90;;;;;;5034105;28;20191;-45
2023/08/14 00:30:05;;;;;;;8.90;2.65;;;18.30;99.90;;;;;;5017272;28;20164;-45
2023/08/14 00:32:31;;;;;;;8.00;2.70;;;18.40;99.90;;;;;;5014079;28;20269;-46
2023/08/14 00:34:56;;;;;;;8.50;2.70;;;18.30;99.90;;;;;;5014116;28;20172;-46
2023/08/14 00:37:25;;;;;;;11.20;2.88;;;18.30;99.90;;;;;;5014051;28;20172;-45
2023/08/14 00:39:50;;;;;;;7.07;2.50;;;18.30;99.90;;;;;;5014062;28;20168;-46
2023/08/14 00:42:16;;;;;;;11.45;2.53;;;18.30;99.90;;;;;;5013128;28;20655;-45
2023/08/14 00:44:41;;;;;;;11.93;3.05;;;18.30;99.90;;;;;;5014185;28;20622;-45
2023/08/14 00:47:07;;;;;;;11.00;2.60;;;18.10;99.90;;;;;;5013859;28;20174;-45
2023/08/14 00:49:33;;;;;;;15.68;2.90;;;18.10;99.90;;;;;;5013827;28;20287;-46
2023/08/14 00:52:00;;;;;;;10.88;2.83;;;18.10;99.90;;;;;;5013698;28;20290;-46
2023/08/14 00:54:26;;;;;;;13.68;3.50;;;18.10;99.90;;;;;;5013961;28;20190;-45
2023/08/14 00:56:51;;;;;;;14.27;3.08;;;18.10;99.90;;;;;;5013919;28;20171;-46
2023/08/14 00:59:17;;;;;;;13.38;2.78;;;18.00;99.90;;;;;;5023341;28;20592;-45
2023/08/14 01:01:43;;;;;;;13.07;3.00;;;20.40;99.90;;;;;;5033851;28;20250;-45
2023/08/14 01:04:09;;;;;;;8.13;3.10;;;17.70;99.90;;;;;;5033296;28;20179;-45
2023/08/14 01:06:34;;;;;;;10.88;3.00;;;17.80;99.90;;;;;;5032022;28;20167;-45
2023/08/14 01:09:00;;;;;;;15.13;3.75;;;17.80;99.90;;;;;;5032911;28;20179;-45
2023/08/14 01:11:53;;;;;;;11.75;2.78;;;17.80;99.90;;;;;;5033191;28;20577;-45
2023/08/14 01:14:31;;;;;;;13.80;2.75;;;17.80;99.90;;;;;;5031679;28;20188;-47
2023/08/14 01:17:03;;;;;;;14.25;2.80;;;17.80;99.90;;;;;;5033099;28;20706;-45
2023/08/14 01:19:39;;;;;;;10.75;2.85;;;17.80;99.90;;;;;;5033056;28;20163;-46
2023/08/14 01:22:12;;;;;;;9.90;3.35;;;17.80;99.90;;;;;;5032983;28;20541;-45
2023/08/14 01:24:59;;;;;;;10.50;3.58;;;17.70;99.90;;;;;;5031663;28;20171;-45
2023/08/14 01:27:25;;;;;;;13.65;3.72;;;17.70;99.90;;;;;;5033074;28;20228;-46
2023/08/14 01:29:56;;;;;;;9.57;2.92;;;17.80;99.90;;;;;;5017443;28;20176;-46
2023/08/14 01:32:22;;;;;;;11.02;2.97;;;17.70;99.90;;;;;;5012947;28;20214;-45
2023/08/14 01:34:47;;;;;;;6.55;2.42;;;17.70;99.90;;;;;;5013134;28;20168;-45
2023/08/14 01:37:40;;;;;;;12.43;2.90;;;17.70;99.90;;;;;;5019914;28;20171;-45
2023/08/14 01:40:16;;;;;;;10.48;3.30;;;17.70;99.90;;;;;;5032488;28;20221;-46
2023/08/14 01:42:46;;;;;;;6.95;2.53;;;17.70;99.90;;;;;;5032641;28;20167;-45
2023/08/14 01:45:19;;;;;;;11.90;3.22;;;17.70;99.90;;;;;;5032561;28;20642;-45
2023/08/14 01:47:46;;;;;;;9.15;3.00;;;17.70;99.90;;;;;;5033079;28;20172;-45
2023/08/14 01:50:13;;;;;;;8.07;2.88;;;17.60;99.90;;;;;;5032438;28;20159;-45
2023/08/14 01:52:39;;;;;;;10.95;2.50;;;17.60;99.90;;;;;;5032275;28;20213;-46
2023/08/14 01:55:07;;;;;;;9.63;2.70;;;17.70;99.90;;;;;;5032000;28;20164;-45
2023/08/14 01:57:33;;;;;;;12.45;3.20;;;17.70;99.90;;;;;;5032358;28;20167;-45
2023/08/14 01:59:59;;;;;;;13.00;3.13;;;17.70;99.90;;;;;;5032026;28;20179;-45
2023/08/14 02:02:25;;;;;;;10.35;3.03;;;17.70;99.90;;;;;;5012435;28;20214;-45
2023/08/14 02:04:50;;;;;;;9.68;2.85;;;17.50;99.90;;;;;;5012480;28;20179;-47
2023/08/14 02:07:16;;;;;;;5.68;2.50;;;17.50;99.90;;;;;;5012884;28;20172;-46
2023/08/14 02:09:42;;;;;;;13.77;2.95;;;17.50;99.90;;;;;;5012387;28;20242;-45
2023/08/14 02:12:08;;;;;;;8.50;2.55;;;17.60;99.90;;;;;;5023179;28;20372;-45
2023/08/14 02:14:34;;;;;;;12.15;2.97;;;17.60;99.90;;;;;;5031820;28;20179;-46
2023/08/14 02:16:59;;;;;;;12.55;3.22;;;17.60;99.90;;;;;;5032273;28;20230;-45
2023/08/14 02:19:25;;;;;;;10.10;3.28;;;17.60;99.90;;;;;;5031964;28;20585;-46
2023/08/14 02:21:50;;;;;;;8.00;2.72;;;17.50;99.90;;;;;;5031942;28;20650;-45
2023/08/14 02:24:16;;;;;;;11.88;3.40;;;17.50;99.90;;;;;;5031016;28;20631;-49
2023/08/14 02:26:41;;;;;;;14.05;3.53;;;17.50;99.90;;;;;;5032097;28;20163;-45
2023/08/14 02:29:08;;;;;;;11.88;3.30;;;17.40;99.90;;;;;;5020272;28;20171;-45
2023/08/14 02:31:34;;;;;;;8.65;3.50;;;17.30;99.90;;;;;;5011987;28;20210;-45
2023/08/14 02:34:01;;;;;;;13.70;3.22;;;17.30;99.90;;;;;;5012001;28;20160;-45
2023/08/14 02:36:27;;;;;;;8.20;2.65;;;17.30;99.90;;;;;;5011852;28;20179;-45
2023/08/14 02:38:54;;;;;;;7.18;2.78;;;17.30;99.90;;;;;;5011986;28;20223;-45
2023/08/14 02:41:20;;;;;;;7.93;2.97;;;17.20;99.90;;;;;;5011954;28;20164;-45
2023/08/14 02:43:45;;;;;;;13.27;3.17;;;17.20;99.90;;;;;;5012299;28;20230;-47
2023/08/14 02:46:11;;;;;;;11.55;2.78;;;17.10;99.90;;;;;;5011781;28;20629;-45
2023/08/14 02:48:36;;;;;;;6.20;2.75;;;17.10;99.90;;;;;;5011812;28;20250;-45
2023/08/14 02:51:03;;;;;;;9.88;3.85;;;17.10;99.90;;;;;;5011712;28;20174;-45
2023/08/14 02:53:29;;;;;;;11.65;3.47;;;17.10;99.90;;;;;;5011791;28;20168;-46
2023/08/14 02:55:55;;;;;;;13.75;3.85;;;17.00;99.90;;;;;;5011794;28;20222;-45
2023/08/14 02:58:21;;;;;;;15.90;4.15;;;17.10;99.90;;;;;;5016217;28;20194;-45
2023/08/14 03:00:47;;;;;;;12.40;3.33;;;17.10;99.90;;;;;;5031513;28;20580;-45
2023/08/14 03:03:13;;;;;;;13.20;3.83;;;17.00;99.90;;;;;;5031829;28;20225;-46
2023/08/14 03:05:39;;;;;;;8.32;3.00;;;17.10;99.90;;;;;;5032523;28;20167;-46
2023/08/14 03:08:05;;;;;;;14.80;3.42;;;17.00;99.90;;;;;;5035328;28;20572;-45
2023/08/14 03:10:31;;;;;;;13.60;4.18;;;17.00;99.90;;;;;;5035701;28;20198;-45
2023/08/14 03:12:57;;;;;;;9.57;3.38;;;17.00;99.90;;;;;;5033996;28;20313;-45
2023/08/14 03:15:23;;;;;;;10.00;2.75;;;16.90;99.90;;;;;;5035524;28;20213;-45
2023/08/14 03:17:48;;;;;;;10.57;3.25;;;16.90;99.90;;;;;;5035296;28;20194;-45
2023/08/14 03:20:14;;;;;;;8.02;3.03;;;16.90;99.90;;;;;;5035782;28;20233;-45
2023/08/14 03:22:40;;;;;;;10.27;3.10;;;16.90;99.90;;;;;;5035540;28;20182;-45
2023/08/14 03:25:06;;;;;;;9.52;2.60;;;16.90;99.90;;;;;;5035402;28;20213;-46
2023/08/14 03:27:31;;;;;;;10.23;2.88;;;16.90;99.90;;;;;;5035244;28;20233;-46
2023/08/14 03:29:57;;;;;;;9.32;2.85;;;16.90;99.90;;;;;;5016993;28;20231;-45
2023/08/14 03:32:23;;;;;;;7.10;2.65;;;16.80;99.90;;;;;;5014015;28;20211;-45
2023/08/14 03:34:48;;;;;;;11.00;3.38;;;16.80;99.90;;;;;;5015238;28;20632;-46
2023/08/14 03:37:14;;;;;;;7.53;3.53;;;16.70;99.90;;;;;;5014326;28;20554;-45
2023/08/14 03:39:39;;;;;;;11.38;3.38;;;16.70;99.90;;;;;;5015154;28;20168;-45
2023/08/14 03:42:05;;;;;;;11.63;3.60;;;16.60;99.90;;;;;;5015104;28;20179;-46
2023/08/14 03:44:31;;;;;;;8.23;3.10;;;16.60;99.90;;;;;;5015161;28;20176;-47
2023/08/14 03:46:56;;;;;;;10.35;3.65;;;16.60;99.90;;;;;;5015002;28;20222;-48
2023/08/14 03:49:22;;;;;;;18.38;3.35;;;16.70;99.90;;;;;;5014990;28;20160;-46
2023/08/14 03:51:47;;;;;;;9.48;3.03;;;16.60;99.90;;;;;;5014963;28;20266;-47
2023/08/14 03:54:13;;;;;;;9.82;2.67;;;16.60;99.90;;;;;;5014063;28;20168;-45
2023/08/14 03:56:39;;;;;;;5.20;2.92;;;16.60;99.90;;;;;;5015058;28;20178;-45
2023/08/14 03:59:05;;;;;;;6.00;2.55;;;16.60;99.90;;;;;;5026035;28;20175;-45
2023/08/14 04:01:31;;;;;;;6.32;2.88;;;16.60;99.90;;;;;;5034448;28;20160;-47
2023/08/14 04:03:56;;;;;;;10.05;3.20;;;16.60;99.90;;;;;;5034724;28;20174;-47
2023/08/14 04:06:22;;;;;;;6.70;2.95;;;16.60;99.90;;;;;;5034053;28;20666;-45
2023/08/14 04:08:48;;;;;;;7.28;2.63;;;16.60;99.90;;;;;;5034427;28;20277;-45
2023/08/14 04:11:13;;;;;;;5.75;2.60;;;16.60;99.90;;;;;;5034680;28;20290;-46
2023/08/14 04:13:39;;;;;;;10.93;2.80;;;16.60;99.90;;;;;;5034086;28;20230;-45
2023/08/14 04:16:05;;;;;;;7.28;3.17;;;16.50;99.90;;;;;;5033522;28;20163;-45
2023/08/14 04:18:31;;;;;;;8.38;2.88;;;16.40;99.90;;;;;;5034496;28;20182;-47
2023/08/14 04:20:57;;;;;;;8.45;3.15;;;16.30;99.90;;;;;;5034093;28;20155;-45
2023/08/14 04:23:24;;;;;;;14.40;2.58;;;16.30;99.90;;;;;;5034093;28;20168;-45
2023/08/14 04:25:50;;;;;;;6.78;3.17;;;16.30;99.90;;;;;;5034197;28;20168;-45
2023/08/14 04:28:16;;;;;;;11.45;3.45;;;16.20;99.90;;;;;;5028273;28;20671;-45
2023/08/14 04:30:42;;;;;;;10.93;3.00;;;16.20;99.90;;;;;;5014868;28;20172;-46
2023/08/14 04:33:08;;;;;;;6.03;2.97;;;16.20;99.90;;;;;;5014042;28;20215;-46
2023/08/14 04:35:33;;;;;;;5.80;2.50;;;16.20;99.90;;;;;;5014129;28;20160;-45
2023/08/14 04:37:59;;;;;;;8.02;2.85;;;16.30;99.90;;;;;;5014283;28;20204;-45
2023/08/14 04:40:25;;;;;;;4.53;2.33;;;16.30;99.90;;;;;;5014036;28;20192;-45
2023/08/14 04:42:50;;;;;;;8.00;2.30;;;16.30;99.90;;;;;;5014243;28;20168;-45
2023/08/14 04:45:16;;;;;;;7.03;2.53;;;16.30;99.90;;;;;;5014343;28;20532;-45
2023/08/14 04:47:41;;;;;;;7.72;2.65;;;16.30;99.90;;;;;;5014315;28;20584;-45
2023/08/14 04:50:07;;;;;;;6.43;2.75;;;16.30;99.90;;;;;;5013826;28;20250;-45
2023/08/14 04:52:33;;;;;;;10.02;3.53;;;16.30;99.90;;;;;;5013661;28;20231;-45
2023/08/14 04:54:58;;;;;;;9.50;2.90;;;16.40;99.90;;;;;;5012508;28;20634;-46
2023/08/14 04:57:24;;;;;;;6.70;2.40;;;16.40;99.90;;;;;;5014705;28;20206;-49
2023/08/14 04:59:49;;;;;;;8.48;2.75;;;16.30;99.90;;;;;;5018641;28;20279;-45
2023/08/14 05:02:15;;;;;;;4.00;2.58;;;16.40;99.90;;;;;;5033848;28;20175;-45
2023/08/14 05:04:41;;;;;;;4.72;2.60;;;16.50;99.90;;;;;;5033250;28;20170;-45
2023/08/14 05:07:06;;;;;;;5.80;3.10;;;16.60;99.90;;;;;;5033166;28;20635;-46
2023/08/14 05:09:32;;;;;;;5.43;2.88;;;16.60;99.90;;;;;;5033153;28;20548;-45
2023/08/14 05:11:58;;;;;;;5.60;2.72;;;16.60;99.90;;;;;;5033089;28;20298;-47
2023/08/14 05:14:24;;;;;;;10.32;2.80;;;16.70;99.90;;;;;;5033289;28;20658;-44
2023/08/14 05:16:49;;;;;;;4.15;2.50;;;16.70;99.90;;;;;;5033038;28;20174;-45
2023/08/14 05:19:15;;;;;;;5.40;2.78;;;16.80;99.90;;;;;;5033687;28;20366;-45
2023/08/14 05:21:41;;;;;;;7.25;2.67;;;16.90;99.90;;;;;;5033007;28;20532;-45
2023/08/14 05:24:07;;;;;;;8.30;2.80;;;17.00;99.90;;;;;;5032974;28;20164;-45
2023/08/14 05:26:33;;;;;;;6.93;2.92;;;17.10;99.90;;;;;;5031693;28;20238;-46
2023/08/14 05:28:58;;;;;;;6.45;2.95;;;17.10;99.90;;;;;;5031817;28;20179;-45
2023/08/14 05:31:24;;;;;;;3.83;2.70;;;17.20;99.90;;;;;;5032542;28;20206;-45
2023/08/14 05:33:50;;;;;;;6.07;2.67;;;17.40;99.90;;;;;;5032790;28;20164;-45
2023/08/14 05:36:15;;;;;;;4.45;2.50;;;17.60;99.90;;;;;;5033172;28;20171;-45
2023/08/14 05:38:44;;;;;;;5.07;2.50;;;17.70;99.90;;;;;;5031519;28;20249;-45
2023/08/14 05:41:10;;;;;;;8.45;2.70;;;17.80;99.90;;;;;;5032828;28;20582;-45
2023/08/14 05:43:35;;;;;;;8.23;2.40;;;17.90;99.90;;;;;;5032663;28;20746;-45
2023/08/14 05:46:01;;;;;;;5.93;2.70;;;18.00;99.90;;;;;;5031354;28;20174;-49
2023/08/14 05:48:26;;;;;;;7.25;2.67;;;18.10;99.90;;;;;;5032439;28;20179;-49
2023/08/14 05:50:55;;;;;;;8.23;3.15;;;18.20;99.90;;;;;;5032391;28;20171;-46
2023/08/14 05:53:20;;;;;;;9.57;3.08;;;18.40;99.90;;;;;;5032328;28;20542;-45
2023/08/14 05:55:46;;;;;;;7.07;3.33;;;18.50;99.90;;;;;;5032987;28;20171;-45
2023/08/14 05:58:11;;;;;;;10.32;3.03;;;18.70;99.90;;;;;;5030840;28;20183;-45
2023/08/14 06:00:38;;;;;;;7.80;2.90;;;18.70;99.90;;;;;;5032307;28;20257;-46
2023/08/14 06:03:05;;;;;;;6.45;2.50;;;18.80;99.90;;;;;;5032246;28;20172;-44
2023/08/14 06:05:31;;;;;;;5.70;2.75;;;18.70;99.90;;;;;;5032330;28;20534;-45
2023/08/14 06:07:57;;;;;;;6.28;2.75;;;18.70;99.90;;;;;;5032113;28;20175;-50
2023/08/14 06:10:23;;;;;;;10.88;2.83;;;18.70;99.90;;;;;;5032382;28;20175;-46
2023/08/14 06:12:50;;;;;;;3.67;2.72;;;18.80;99.90;;;;;;5031823;28;20222;-45
2023/08/14 06:15:17;;;;;;;3.92;2.78;;;18.90;99.90;;;;;;5032415;28;20707;-47
2023/08/14 06:17:43;;;;;;;5.03;3.00;;;18.80;99.90;;;;;;5032470;28;20198;-45
2023/08/14 06:20:12;;;;;;;6.85;2.60;;;18.70;99.90;;;;;;5031975;28;20203;-46
2023/08/14 06:22:42;;;;;;;5.60;2.80;;;18.70;99.90;;;;;;5031879;28;20171;-46
2023/08/14 06:25:08;;;;;;;6.90;2.50;;;18.80;99.90;;;;;;5031940;28;20681;-48
2023/08/14 06:27:34;;;;;;;5.88;2.67;;;18.90;99.90;;;;;;5031500;28;20175;-46
2023/08/14 06:30:00;;;;;;;7.60;3.00;;;19.00;99.90;;;;;;5031506;28;20175;-45
2023/08/14 06:32:26;;;;;;;7.63;3.22;;;19.00;99.90;;;;;;5031608;28;20298;-45
2023/08/14 06:34:51;;;;;;;8.20;2.42;;;19.10;99.90;;;;;;5031878;28;20593;-45
2023/08/14 06:37:17;;;;;;;7.78;2.55;;;19.20;99.90;;;;;;5031729;28;20254;-45
2023/08/14 06:39:42;;;;;;;9.18;2.95;;;19.40;99.90;;;;;;5032114;28;20650;-45
2023/08/14 06:42:08;;;;;;;8.05;3.38;;;19.50;99.90;;;;;;5031689;28;20197;-45
2023/08/14 06:44:34;;;;;;;8.30;3.00;;;19.60;99.90;;;;;;5031581;28;20651;-45
2023/08/14 06:47:00;;;;;;;8.18;3.38;;;19.70;99.90;;;;;;5031486;28;20579;-47
2023/08/14 06:49:26;;;;;;;5.35;2.50;;;19.70;99.90;;;;;;5031509;28;20166;-47
2023/08/14 06:51:52;;;;;;;6.63;2.55;;;20.00;99.90;;;;;;5031446;28;20203;-49
2023/08/14 06:54:17;;;;;;;7.13;2.95;;;20.00;99.90;;;;;;5031502;28;20213;-46
2023/08/14 06:56:43;;;;;;;11.00;2.90;;;20.00;99.90;;;;;;5031933;28;20579;-46
2023/08/14 06:59:09;;;;;;;5.28;2.60;;;20.20;99.90;;;;;;5014177;28;20172;-46
2023/08/14 07:01:34;;;;;;;4.75;2.40;;;20.50;99.90;;;;;;5011668;28;20168;-46
2023/08/14 07:04:01;;;;;;;6.38;2.75;;;20.60;99.90;;;;;;5011720;28;20167;-49
2023/08/14 07:06:27;;;;;;;7.22;2.72;;;20.50;99.90;;;;;;5011689;28;20174;-45
2023/08/14 07:08:52;;;;;;;8.80;2.97;;;20.50;99.90;;;;;;5011587;28;20597;-46
2023/08/14 07:11:18;;;;;;;4.88;2.70;;;20.60;99.90;;;;;;5011636;28;20204;-47
2023/08/14 07:13:46;;;;;;;6.60;2.70;;;20.60;99.90;;;;;;5011788;28;20226;-46
2023/08/14 07:16:12;;;;;;;5.85;2.50;;;20.50;99.90;;;;;;5012102;28;20586;-47
2023/08/14 07:18:37;;;;;;;5.65;2.38;;;20.60;99.90;;;;;;5011578;28;20203;-46
2023/08/14 07:21:03;;;;;;;6.22;3.13;;;20.70;99.90;;;;;;5011551;28;20172;-45
2023/08/14 07:23:29;;;;;;;6.93;2.47;;;20.70;99.90;;;;;;5011546;28;20174;-46
2023/08/14 07:25:57;;;;;;;7.82;2.42;;;20.80;99.90;;;;;;5011420;28;20206;-45
2023/08/14 07:28:23;;;;;;;5.05;2.55;;;20.90;99.90;;;;;;5024659;28;20187;-45
2023/08/14 07:30:49;;;;;;;7.88;2.85;;;21.30;99.90;;;;;;5031181;28;20159;-45
2023/08/14 07:33:15;;;;;;;8.55;3.38;;;21.50;99.90;;;;;;5031487;28;20214;-46
2023/08/14 07:35:41;;;;;;;7.00;2.30;;;21.50;99.90;;;;;;5031452;28;20175;-48
2023/08/14 07:38:07;;;;;;;6.68;2.47;;;21.50;99.90;;;;;;5031071;28;20167;-46
2023/08/14 07:40:33;;;;;;;7.07;2.60;;;21.70;99.90;;;;;;5031099;28;20174;-46
2023/08/14 07:42:58;;;;;;;10.48;2.75;;;21.90;99.90;;;;;;5031015;28;20168;-51
2023/08/14 07:45:24;;;;;;;5.75;2.80;;;21.80;99.90;;;;;;5031076;28;20207;-45
2023/08/14 07:47:50;;;;;;;6.63;2.60;;;21.90;99.90;;;;;;5030992;28;20528;-46
2023/08/14 07:50:15;;;;;;;6.15;2.70;;;21.90;99.90;;;;;;5030986;28;20211;-47
2023/08/14 07:52:41;;;;;;;8.23;2.58;;;22.00;99.90;;;;;;5032541;28;20207;-45
2023/08/14 07:55:07;;;;;;;5.85;2.53;;;22.20;99.90;;;;;;5034605;28;20255;-45
2023/08/14 07:57:33;;;;;;;8.77;3.38;;;22.30;99.90;;;;;;5028486;28;20176;-47
2023/08/14 07:59:58;;;;;;;7.57;2.63;;;22.40;99.90;;;;;;5014656;28;20690;-45
2023/08/14 08:02:24;;;;;;;7.85;2.88;;;22.80;99.90;;;;;;5014729;28;20282;-45
2023/08/14 08:04:50;;;;;;;6.60;2.47;;;22.80;99.90;;;;;;5014733;28;20588;-46
2023/08/14 08:07:16;;;;;;;7.35;2.50;;;22.90;99.90;;;;;;5014595;28;20503;-47
2023/08/14 08:09:41;;;;;;;10.98;2.70;;;22.90;99.90;;;;;;5015027;28;20171;-48
2023/08/14 08:12:07;;;;;;;5.97;2.50;;;22.90;99.90;;;;;;5014347;28;20777;-44
2023/08/14 08:14:35;;;;;;;8.40;2.40;;;23.10;99.90;;;;;;5014493;28;20175;-45
2023/08/14 08:17:00;;;;;;;9.43;2.60;;;23.10;99.90;;;;;;5014445;28;20210;-46
2023/08/14 08:19:26;;;;;;;7.72;2.53;;;22.90;99.90;;;;;;5014425;28;20259;-45
2023/08/14 08:21:52;;;;;;;5.25;2.50;;;23.20;99.90;;;;;;5014417;28;20163;-46
2023/08/14 08:24:18;;;;;;;7.80;2.72;;;23.30;99.90;;;;;;5014429;28;20511;-45
2023/08/14 08:26:44;;;;;;;4.88;2.35;;;23.20;99.90;;;;;;5016653;28;20238;-45
2023/08/14 08:29:10;;;;;;;8.48;2.55;;;23.10;99.90;;;;;;5034554;28;20168;-45
2023/08/14 08:31:36;;;;;;;6.22;2.33;;;23.10;99.90;;;;;;5033774;28;20206;-45
2023/08/14 08:34:02;;;;;;;5.35;2.45;;;23.50;99.90;;;;;;5033623;28;20172;-46
2023/08/14 08:36:27;;;;;;;4.30;2.60;;;23.50;99.90;;;;;;5048674;28;20207;-46
2023/08/14 08:38:53;;;;;;;8.75;2.60;;;23.30;99.90;;;;;;5033819;28;20174;-46
2023/08/14 08:41:24;;;;;;;10.50;2.50;;;23.50;99.90;;;;;;5033713;28;20650;-46
2023/08/14 08:43:58;;;;;;;4.03;2.35;;;23.50;99.90;;;;;;5033700;28;20210;-46
2023/08/14 08:46:24;;;;;;;5.97;2.40;;;23.50;99.90;;;;;;5033756;28;20167;-45
2023/08/14 08:48:51;;;;;;;8.82;2.45;;;23.70;99.90;;;;;;5033571;28;20701;-47
2023/08/14 08:51:17;;;;;;;7.30;3.08;;;23.80;99.90;;;;;;5033446;28;20164;-48
2023/08/14 08:53:43;;;;;;;6.93;3.08;;;23.80;99.90;;;;;;5034039;28;20167;-46
2023/08/14 08:56:10;;;;;;;7.15;2.70;;;24.00;99.90;;;;;;5033457;28;20181;-47
2023/08/14 08:58:36;;;;;;;6.60;2.55;;;24.00;99.90;;;;;;5031887;28;20605;-45
2023/08/14 09:01:01;;;;;;;7.35;2.78;;;24.00;99.90;;;;;;5033428;28;20191;-49
2023/08/14 09:03:27;;;;;;;6.05;2.80;;;23.90;99.90;;;;;;5032501;28;20630;-45
2023/08/14 09:05:53;;;;;;;5.93;2.90;;;23.90;99.90;;;;;;5031950;28;20167;-45
2023/08/14 09:08:18;;;;;;;7.97;3.17;;;23.80;99.90;;;;;;5033522;28;20178;-50
2023/08/14 09:10:44;;;;;;;6.82;3.08;;;23.90;99.90;;;;;;5033900;28;20163;-50
2023/08/14 09:13:10;;;;;;;6.63;3.13;;;23.90;99.90;;;;;;5032996;28;20573;-49
2023/08/14 09:15:40;;;;;;;9.80;2.90;;;24.00;99.90;;;;;;5033372;28;20171;-47
2023/08/14 09:18:06;;;;;;;9.30;3.08;;;24.10;99.90;;;;;;5033083;28;20257;-49
2023/08/14 09:20:32;;;;;;;10.77;3.33;;;24.10;99.90;;;;;;5033027;28;20698;-49
2023/08/14 09:22:59;;;;;;;7.22;2.75;;;24.10;99.90;;;;;;5032924;28;20199;-47
2023/08/14 09:25:25;;;;;;;8.85;3.53;;;24.20;99.90;;;;;;5032778;28;20167;-50
2023/08/14 09:27:53;;;;;;;10.00;3.35;;;24.50;99.90;;;;;;5020586;28;20234;-50
2023/08/14 09:30:19;;;;;;;8.65;2.95;;;24.70;99.90;;;;;;5013023;28;20167;-47
2023/08/14 09:32:45;;;;;;;7.18;2.85;;;24.90;99.90;;;;;;5013380;28;20261;-49
2023/08/14 09:35:10;;;;;;;6.35;3.20;;;25.00;99.90;;;;;;5013329;28;20176;-46
2023/08/14 09:37:36;;;;;;;5.70;2.97;;;24.80;99.90;;;;;;5012498;28;20223;-49
2023/08/14 09:40:14;;;;;;;8.57;3.05;;;24.80;99.90;;;;;;5012921;28;20174;-49
2023/08/14 09:42:41;;;;;;;8.52;3.13;;;24.90;99.90;;;;;;5013183;28;20174;-50
2023/08/14 09:45:07;;;;;;;6.80;2.75;;;24.60;99.90;;;;;;5012791;28;20251;-50
2023/08/14 09:47:34;;;;;;;9.23;3.42;;;25.00;99.90;;;;;;5012838;28;20243;-50
2023/08/14 09:50:00;;;;;;;6.25;3.20;;;24.90;99.90;;;;;;5013059;28;20254;-50
2023/08/14 09:52:25;;;;;;;5.75;3.00;;;25.00;99.90;;;;;;5012852;28;20675;-50
2023/08/14 09:54:53;;;;;;;8.35;3.45;;;25.40;99.90;;;;;;5012724;28;20558;-49
2023/08/14 09:57:20;;;;;;;7.72;3.42;;;25.40;99.90;;;;;;5020887;28;20171;-48
2023/08/14 09:59:46;;;;;;;8.60;3.08;;;25.50;99.90;;;;;;5032362;28;20208;-51
2023/08/14 10:02:15;;;;;;;9.82;3.53;;;25.60;99.90;;;;;;5032635;28;20253;-50
2023/08/14 10:04:45;;;;;;;11.38;3.70;;;25.60;99.90;;;;;;5032632;28;20650;-45
2023/08/14 10:07:12;;;;;;;13.30;3.30;;;26.10;99.90;;;;;;5032685;28;20646;-45
2023/08/14 10:09:43;;;;;;;9.95;5.78;;;26.10;99.90;;;;;;5032209;28;20170;-45
2023/08/14 10:12:12;;;;;;;7.75;4.05;;;26.10;99.90;;;;;;5031905;28;20217;-46
2023/08/14 10:14:41;;;;;;;17.92;14.15;;;25.80;99.90;;;;;;5032078;28;20186;-45
2023/08/14 10:17:14;;;;;;;8.02;3.33;;;25.80;99.90;;;;;;5031885;28;20197;-45
2023/08/14 10:19:41;;;;;;;4.45;2.80;;;26.10;99.90;;;;;;5032448;28;20166;-45
2023/08/14 10:22:08;;;;;;;5.78;3.17;;;26.00;99.90;;;;;;5031885;28;20163;-44
2023/08/14 10:24:38;;;;;;;5.97;2.80;;;26.30;99.90;;;;;;5031902;28;20248;-46
2023/08/14 10:27:04;;;;;;;9.73;3.42;;;26.60;99.90;;;;;;5022894;28;20262;-45
2023/08/14 10:29:32;;;;;;;4.00;2.75;;;26.70;99.90;;;;;;5012138;28;20168;-46
2023/08/14 10:31:59;;;;;;;5.43;2.70;;;26.70;99.90;;;;;;5012013;28;20603;-45
2023/08/14 10:34:25;;;;;;;5.50;2.67;;;26.70;99.90;;;;;;5011880;28;20175;-44
2023/08/14 10:36:51;;;;;;;9.15;3.20;;;26.90;99.90;;;;;;5012266;28;20182;-45
2023/08/14 10:39:18;;;;;;;8.10;2.72;;;26.70;99.90;;;;;;5011956;28;20183;-50
2023/08/14 10:41:44;;;;;;;5.65;3.10;;;26.80;99.90;;;;;;5012364;28;20672;-45
2023/08/14 10:44:11;;;;;;;5.20;2.85;;;26.80;99.90;;;;;;5012294;28;20251;-46
2023/08/14 10:46:41;;;;;;;9.15;3.65;;;26.80;99.90;;;;;;5011772;28;20167;-45
2023/08/14 10:49:07;;;;;;;8.27;2.67;;;26.80;99.90;;;;;;5011486;28;20174;-44
2023/08/14 10:51:33;;;;;;;6.90;2.75;;;27.00;99.90;;;;;;5011647;28;20202;-45
2023/08/14 10:54:08;;;;;;;5.57;2.90;;;27.20;99.90;;;;;;5011715;28;20213;-45
2023/08/14 10:56:45;;;;;;;7.78;3.00;;;26.90;99.90;;;;;;5016163;28;20177;-44
2023/08/14 10:59:23;;;;;;;7.28;2.65;;;26.50;99.90;;;;;;5031474;28;20186;-45
2023/08/14 11:01:51;;;;;;;8.35;3.22;;;26.30;99.90;;;;;;5031412;28;20257;-45
2023/08/14 11:04:17;;;;;;;7.50;2.65;;;26.30;99.90;;;;;;5031311;28;20212;-45
2023/08/14 11:07:01;;;;;;;7.95;2.08;;;26.00;99.90;;;;;;5031905;28;20253;-44
2023/08/14 11:09:31;;;;;;;5.63;2.50;;;25.90;99.90;;;;;;5031599;28;20167;-46
2023/08/14 11:12:02;;;;;;;5.63;2.38;;;25.80;99.90;;;;;;5031138;28;20214;-45
2023/08/14 11:14:27;;;;;;;5.85;2.20;;;25.70;99.90;;;;;;5031294;28;20216;-45
2023/08/14 11:16:53;;;;;;;8.38;2.83;;;25.70;99.90;;;;;;5031347;28;20584;-45
2023/08/14 11:19:19;;;;;;;7.38;2.50;;;25.60;99.90;;;;;;5031310;28;20171;-44
2023/08/14 11:21:49;;;;;;;5.05;2.22;;;25.80;99.90;;;;;;5031503;28;20174;-45
2023/08/14 11:24:15;;;;;;;6.93;2.67;;;25.80;99.90;;;;;;5031294;28;20178;-45
2023/08/14 11:26:40;;;;;;;8.38;2.72;;;25.70;99.90;;;;;;5024871;28;20179;-45
2023/08/14 11:29:06;;;;;;;8.35;2.70;;;25.60;99.90;;;;;;5015380;28;20213;-45
2023/08/14 11:31:31;;;;;;;7.38;2.30;;;25.70;99.90;;;;;;5015250;28;20203;-45
2023/08/14 11:33:57;;;;;;;6.78;2.72;;;26.00;99.90;;;;;;5015264;28;20159;-47
2023/08/14 11:36:23;;;;;;;6.13;2.90;;;26.00;99.90;;;;;;5015245;28;20581;-45
2023/08/14 11:38:51;;;;;;;5.65;2.38;;;26.20;99.90;;;;;;5015240;28;20164;-46
2023/08/14 11:41:16;;;;;;;8.32;2.58;;;26.70;99.90;;;;;;5015145;28;20171;-45
2023/08/14 11:43:42;;;;;;;5.85;2.47;;;27.10;99.90;;;;;;5015572;28;20171;-50
2023/08/14 11:46:09;;;;;;;8.63;3.58;;;27.40;99.90;;;;;;5015064;28;20167;-50
2023/08/14 11:48:38;;;;;;;6.53;2.40;;;27.30;99.90;;;;;;5015286;28;20175;-45
2023/08/14 11:51:04;;;;;;;4.40;2.72;;;27.40;99.90;;;;;;5015039;28;20254;-46
2023/08/14 11:53:30;;;;;;;5.25;2.40;;;27.30;99.90;;;;;;5014757;28;20203;-49
2023/08/14 11:55:56;;;;;;;6.57;2.80;;;27.60;99.90;;;;;;5015542;28;20159;-45
2023/08/14 11:58:22;;;;;;;10.52;3.42;;;27.40;99.90;;;;;;5034599;28;20182;-46
2023/08/14 12:00:51;;;;;;;5.90;2.97;;;27.70;99.90;;;;;;5034290;28;20237;-50
2023/08/14 12:03:17;;;;;;;5.72;2.83;;;27.60;99.90;;;;;;5034041;28;20169;-45
2023/08/14 12:05:47;;;;;;;7.88;2.92;;;27.50;99.90;;;;;;5034638;28;20254;-47
2023/08/14 12:08:13;;;;;;;5.88;2.38;;;27.30;99.90;;;;;;5034851;28;20167;-50
2023/08/14 12:10:39;;;;;;;5.20;2.70;;;27.20;99.90;;;;;;5034739;28;20170;-47
2023/08/14 12:13:06;;;;;;;8.30;2.65;;;27.00;99.90;;;;;;5032849;28;20561;-45
2023/08/14 12:15:32;;;;;;;6.13;2.50;;;27.20;99.90;;;;;;5034281;28;20641;-46
2023/08/14 12:17:57;;;;;;;6.65;2.55;;;27.30;99.90;;;;;;5034254;28;20178;-47
2023/08/14 12:20:23;;;;;;;7.13;2.45;;;27.40;99.90;;;;;;5034214;28;20163;-45
2023/08/14 12:22:49;;;;;;;6.88;2.95;;;27.40;99.90;;;;;;5034149;28;20545;-50
2023/08/14 12:25:19;;;;;;;3.97;2.60;;;27.20;99.90;;;;;;5033743;28;20217;-45
2023/08/14 12:27:45;;;;;;;6.90;2.72;;;27.20;99.90;;;;;;5033680;28;20189;-48
2023/08/14 12:30:11;;;;;;;5.18;2.95;;;27.20;99.90;;;;;;5033950;28;20623;-47
2023/08/14 12:32:45;;;;;;;7.82;3.10;;;27.20;99.90;;;;;;5032756;28;20563;-49
2023/08/14 12:35:10;;;;;;;14.45;3.47;;;27.10;99.90;;;;;;5034237;28;20200;-45
2023/08/14 12:37:36;;;;;;;10.20;2.80;;;27.30;99.90;;;;;;5033618;28;20249;-50
2023/08/14 12:40:08;;;;;;;6.80;2.85;;;27.40;99.90;;;;;;5034093;28;20171;-45
2023/08/14 12:42:34;;;;;;;7.57;3.10;;;27.60;99.90;;;;;;5034066;28;20729;-45